
Distance (Route):
Temperature : -12.5°C
Humidity : 25.5%
Pressure : 454.3hPa| Receiver | Frames | First received | Last received |
|---|---|---|---|
| AUTORXJP | 218 | 2026-09-04 12:01:39 | 2026-09-04 13:57:40 |
| Receiver | Date | Latitude | Longitude | Direction | Speed | Altitude | Climb | Temperature | Humidity | Pressure | Voltage | Killtimer | Uptime | BKT | XDATA |
|---|---|---|---|---|---|---|---|---|---|---|---|---|---|---|---|
| AUTORXJP | 2026-09-04 13:57:40 | 43.93503 | 5.10867 | 99° | 38km/h | 6733m | -3.6m/s | -12.5°C | 25.5% | 454.3hPa | 0V | 00:00:00 | 00:00:00 | 00:00:00 | |
| AUTORXJP | 2026-09-04 13:57:09 | 43.93523 | 5.10673 | 98° | 35km/h | 6785m | -3.9m/s | -12.8°C | 23.5% | 451.1hPa | 0V | 00:00:00 | 00:00:00 | 00:00:00 | |
| AUTORXJP | 2026-09-04 13:56:38 | 43.93576 | 5.10363 | 92° | 22km/h | 6911m | -4.1m/s | -13.7°C | 18.1% | 443.8hPa | 0V | 00:00:00 | 00:00:00 | 00:00:00 | |
| AUTORXJP | 2026-09-04 13:56:07 | 43.93548 | 5.10177 | 72° | 26km/h | 7000m | -2.5m/s | -14.5°C | 18.6% | 438.7hPa | 0V | 00:00:00 | 00:00:00 | 00:00:00 | |
| AUTORXJP | 2026-09-04 13:55:36 | 43.93471 | 5.09836 | 82° | 37km/h | 7113m | -4.5m/s | -15.5°C | 19.0% | 432.0hPa | 0V | 00:00:00 | 00:00:00 | 00:00:00 | |
| AUTORXJP | 2026-09-04 13:55:05 | 43.93472 | 5.09455 | 104° | 38km/h | 7202m | -2.9m/s | -16.1°C | 18.6% | 426.8hPa | 0V | 00:00:00 | 00:00:00 | 00:00:00 | |
| AUTORXJP | 2026-09-04 13:54:34 | 43.93543 | 5.09150 | 86° | 27km/h | 7297m | -2.9m/s | -16.8°C | 18.9% | 421.6hPa | 0V | 00:00:00 | 00:00:00 | 00:00:00 | |
| AUTORXJP | 2026-09-04 13:53:31 | 43.93605 | 5.08329 | 112° | 38km/h | 7494m | -2.2m/s | -18.1°C | 22.9% | 410.5hPa | 0V | 00:00:00 | 00:00:00 | 00:00:00 | |
| AUTORXJP | 2026-09-04 13:53:00 | 43.93713 | 5.08043 | 105° | 20km/h | 7582m | -2.5m/s | -18.9°C | 21.7% | 405.6hPa | 0V | 00:00:00 | 00:00:00 | 00:00:00 | |
| AUTORXJP | 2026-09-04 13:52:29 | 43.93722 | 5.07691 | 99° | 38km/h | 7687m | -3.0m/s | -19.9°C | 23.2% | 399.9hPa | 0V | 00:00:00 | 00:00:00 | 00:00:00 | |
| AUTORXJP | 2026-09-04 13:51:58 | 43.93809 | 5.07367 | 121° | 26km/h | 7788m | -3.5m/s | -20.7°C | 23.1% | 394.4hPa | 0V | 00:00:00 | 00:00:00 | 00:00:00 | |
| AUTORXJP | 2026-09-04 13:51:27 | 43.93864 | 5.07148 | 81° | 24km/h | 7894m | -2.9m/s | -21.4°C | 20.2% | 388.9hPa | 0V | 00:00:00 | 00:00:00 | 00:00:00 | |
| AUTORXJP | 2026-09-04 13:50:56 | 43.93850 | 5.06816 | 97° | 38km/h | 7997m | -3.8m/s | -22.2°C | 19.3% | 383.2hPa | 0V | 00:00:00 | 00:00:00 | 00:00:00 | |
| AUTORXJP | 2026-09-04 13:50:25 | 43.93928 | 5.06419 | 106° | 26km/h | 8109m | -3.3m/s | -22.7°C | 16.6% | 377.4hPa | 0V | 00:00:00 | 00:00:00 | 00:00:00 | |
| AUTORXJP | 2026-09-04 13:49:54 | 43.93956 | 5.06162 | 95° | 24km/h | 8225m | -3.7m/s | -23.5°C | 15.8% | 371.5hPa | 0V | 00:00:00 | 00:00:00 | 00:00:00 | |
| AUTORXJP | 2026-09-04 13:49:23 | 43.93914 | 5.05860 | 77° | 27km/h | 8337m | -2.8m/s | -24.4°C | 15.7% | 365.8hPa | 0V | 00:00:00 | 00:00:00 | 00:00:00 | |
| AUTORXJP | 2026-09-04 13:48:52 | 43.93860 | 5.05462 | 86° | 44km/h | 8455m | -3.9m/s | -24.9°C | 13.9% | 359.9hPa | 0V | 00:00:00 | 00:00:00 | 00:00:00 | |
| AUTORXJP | 2026-09-04 13:48:21 | 43.93873 | 5.04919 | 102° | 53km/h | 8578m | -4.8m/s | -25.7°C | 13.9% | 354.1hPa | 0V | 00:00:00 | 00:00:00 | 00:00:00 | |
| AUTORXJP | 2026-09-04 13:47:50 | 43.93963 | 5.04401 | 106° | 47km/h | 8698m | -5.2m/s | -26.8°C | 13.9% | 348.1hPa | 0V | 00:00:00 | 00:00:00 | 00:00:00 | |
| AUTORXJP | 2026-09-04 13:47:18 | 43.94063 | 5.03935 | 92° | 40km/h | 8825m | -3.0m/s | -27.7°C | 13.8% | 342.1hPa | 0V | 00:00:00 | 00:00:00 | 00:00:00 | |
| AUTORXJP | 2026-09-04 13:46:16 | 43.94029 | 5.02885 | 99° | 44km/h | 9066m | -2.9m/s | -29.4°C | 13.7% | 330.6hPa | 0V | 00:00:00 | 00:00:00 | 00:00:00 | |
| AUTORXJP | 2026-09-04 13:45:45 | 43.94087 | 5.02396 | 99° | 40km/h | 9191m | -4.2m/s | -30.3°C | 13.9% | 324.9hPa | 0V | 00:00:00 | 00:00:00 | 00:00:00 | |
| AUTORXJP | 2026-09-04 13:45:14 | 43.94103 | 5.01968 | 81° | 38km/h | 9312m | -3.7m/s | -31.4°C | 14.3% | 319.5hPa | 0V | 00:00:00 | 00:00:00 | 00:00:00 | |
| AUTORXJP | 2026-09-04 13:44:43 | 43.94035 | 5.01406 | 91° | 58km/h | 9429m | -3.8m/s | -32.2°C | 13.8% | 314.1hPa | 0V | 00:00:00 | 00:00:00 | 00:00:00 | |
| AUTORXJP | 2026-09-04 13:44:12 | 43.94068 | 5.00816 | 98° | 46km/h | 9547m | -4.4m/s | -33.1°C | 15.9% | 309.0hPa | 0V | 00:00:00 | 00:00:00 | 00:00:00 | |
| AUTORXJP | 2026-09-04 13:43:41 | 43.94046 | 5.00363 | 76° | 44km/h | 9664m | -4.4m/s | -34.0°C | 14.8% | 303.7hPa | 0V | 00:00:00 | 00:00:00 | 00:00:00 | |
| AUTORXJP | 2026-09-04 13:43:10 | 43.93920 | 4.99879 | 68° | 47km/h | 9789m | -3.3m/s | -34.9°C | 15.5% | 298.5hPa | 0V | 00:00:00 | 00:00:00 | 00:00:00 | |
| AUTORXJP | 2026-09-04 13:42:39 | 43.93749 | 4.99353 | 67° | 58km/h | 9907m | -3.3m/s | -36.1°C | 18.1% | 293.3hPa | 0V | 00:00:00 | 00:00:00 | 00:00:00 | |
| AUTORXJP | 2026-09-04 13:42:08 | 43.93576 | 4.98743 | 70° | 60km/h | 10025m | -3.6m/s | -37.1°C | 18.0% | 288.3hPa | 0V | 00:00:00 | 00:00:00 | 00:00:00 | |
| AUTORXJP | 2026-09-04 13:41:37 | 43.93425 | 4.98112 | 72° | 62km/h | 10145m | -4.0m/s | -38.0°C | 18.8% | 283.2hPa | 0V | 00:00:00 | 00:00:00 | 00:00:00 | |
| AUTORXJP | 2026-09-04 13:41:06 | 43.93306 | 4.97461 | 75° | 60km/h | 10267m | -3.4m/s | -39.1°C | 18.5% | 278.2hPa | 0V | 00:00:00 | 00:00:00 | 00:00:00 | |
| AUTORXJP | 2026-09-04 13:40:35 | 43.93227 | 4.96829 | 81° | 57km/h | 10392m | -3.0m/s | -40.1°C | 20.0% | 273.1hPa | 0V | 00:00:00 | 00:00:00 | 00:00:00 | |
| AUTORXJP | 2026-09-04 13:40:04 | 43.93150 | 4.96337 | 68° | 44km/h | 10518m | -3.6m/s | -41.2°C | 22.0% | 268.1hPa | 0V | 00:00:00 | 00:00:00 | 00:00:00 | |
| AUTORXJP | 2026-09-04 13:39:32 | 43.92967 | 4.95884 | 56° | 53km/h | 10648m | -4.0m/s | -42.5°C | 23.8% | 263.0hPa | 0V | 00:00:00 | 00:00:00 | 00:00:00 | |
| AUTORXJP | 2026-09-04 13:39:01 | 43.92745 | 4.95331 | 63° | 60km/h | 10780m | -4.1m/s | -43.7°C | 25.0% | 257.8hPa | 0V | 00:00:00 | 00:00:00 | 00:00:00 | |
| AUTORXJP | 2026-09-04 13:38:30 | 43.92587 | 4.94711 | 78° | 47km/h | 10919m | -3.7m/s | -44.9°C | 26.3% | 252.6hPa | 0V | 00:00:00 | 00:00:00 | 00:00:00 | |
| AUTORXJP | 2026-09-04 13:37:59 | 43.92498 | 4.94240 | 75° | 38km/h | 11054m | -4.7m/s | -46.1°C | 28.5% | 247.4hPa | 0V | 00:00:00 | 00:00:00 | 00:00:00 | |
| AUTORXJP | 2026-09-04 13:37:28 | 43.92307 | 4.93887 | 46° | 51km/h | 11191m | -4.4m/s | -47.3°C | 29.6% | 242.3hPa | 0V | 00:00:00 | 00:00:00 | 00:00:00 | |
| AUTORXJP | 2026-09-04 13:36:57 | 43.92055 | 4.93393 | 67° | 53km/h | 11329m | -4.5m/s | -48.3°C | 28.8% | 237.3hPa | 0V | 00:00:00 | 00:00:00 | 00:00:00 | |
| AUTORXJP | 2026-09-04 13:36:26 | 43.91922 | 4.92931 | 60° | 35km/h | 11467m | -4.5m/s | -49.5°C | 29.4% | 232.3hPa | 0V | 00:00:00 | 00:00:00 | 00:00:00 | |
| AUTORXJP | 2026-09-04 13:35:55 | 43.91702 | 4.92581 | 49° | 53km/h | 11607m | -4.4m/s | -50.4°C | 29.6% | 227.4hPa | 0V | 00:00:00 | 00:00:00 | 00:00:00 | |
| AUTORXJP | 2026-09-04 13:35:24 | 43.91446 | 4.92063 | 56° | 58km/h | 11747m | -4.5m/s | -51.4°C | 28.9% | 222.5hPa | 0V | 00:00:00 | 00:00:00 | 00:00:00 | |
| AUTORXJP | 2026-09-04 13:34:53 | 43.91257 | 4.91543 | 65° | 42km/h | 11888m | -4.4m/s | -52.6°C | 31.1% | 217.7hPa | 0V | 00:00:00 | 00:00:00 | 00:00:00 | |
| AUTORXJP | 2026-09-04 13:34:22 | 43.91105 | 4.91177 | 59° | 37km/h | 12028m | -4.4m/s | -53.7°C | 30.8% | 212.9hPa | 0V | 00:00:00 | 00:00:00 | 00:00:00 | |
| AUTORXJP | 2026-09-04 13:33:51 | 43.90892 | 4.90909 | 32° | 44km/h | 12169m | -4.6m/s | -54.7°C | 32.1% | 208.3hPa | 0V | 00:00:00 | 00:00:00 | 00:00:00 | |
| AUTORXJP | 2026-09-04 13:33:19 | 43.90610 | 4.90583 | 54° | 47km/h | 12313m | -4.6m/s | -55.8°C | 33.1% | 203.7hPa | 0V | 00:00:00 | 00:00:00 | 00:00:00 | |
| AUTORXJP | 2026-09-04 13:32:48 | 43.90441 | 4.90299 | 32° | 29km/h | 12458m | -4.7m/s | -57.1°C | 32.8% | 199.0hPa | 0V | 00:00:00 | 00:00:00 | 00:00:00 | |
| AUTORXJP | 2026-09-04 13:32:17 | 43.90177 | 4.90120 | 27° | 46km/h | 12601m | -4.6m/s | -58.3°C | 31.2% | 194.5hPa | 0V | 00:00:00 | 00:00:00 | 00:00:00 | |
| AUTORXJP | 2026-09-04 13:31:46 | 43.89903 | 4.89748 | 58° | 44km/h | 12746m | -4.7m/s | -59.2°C | 28.1% | 190.1hPa | 0V | 00:00:00 | 00:00:00 | 00:00:00 | |
| AUTORXJP | 2026-09-04 13:31:16 | 43.89754 | 4.89430 | 52° | 26km/h | 12889m | -4.9m/s | -59.5°C | 27.6% | 185.7hPa | 0V | 00:00:00 | 00:00:00 | 00:00:00 | |
| AUTORXJP | 2026-09-04 13:30:44 | 43.89480 | 4.89249 | 26° | 46km/h | 13037m | -4.4m/s | -60.4°C | 27.2% | 181.4hPa | 0V | 00:00:00 | 00:00:00 | 00:00:00 | |
| AUTORXJP | 2026-09-04 13:30:13 | 43.89204 | 4.88900 | 62° | 44km/h | 13183m | -4.8m/s | -61.5°C | 26.2% | 177.2hPa | 0V | 00:00:00 | 00:00:00 | 00:00:00 | |
| AUTORXJP | 2026-09-04 13:29:42 | 43.89064 | 4.88486 | 61° | 27km/h | 13327m | -4.7m/s | -62.7°C | 24.4% | 173.0hPa | 0V | 00:00:00 | 00:00:00 | 00:00:00 | |
| AUTORXJP | 2026-09-04 13:29:11 | 43.88837 | 4.88181 | 51° | 49km/h | 13474m | -4.6m/s | -63.9°C | 21.8% | 168.9hPa | 0V | 00:00:00 | 00:00:00 | 00:00:00 | |
| AUTORXJP | 2026-09-04 13:28:40 | 43.88692 | 4.87707 | 77° | 42km/h | 13619m | -4.7m/s | -64.8°C | 18.0% | 164.9hPa | 0V | 00:00:00 | 00:00:00 | 00:00:00 | |
| AUTORXJP | 2026-09-04 13:28:09 | 43.88481 | 4.87296 | 59° | 58km/h | 13767m | -4.8m/s | -65.6°C | 15.0% | 160.9hPa | 0V | 00:00:00 | 00:00:00 | 00:00:00 | |
| AUTORXJP | 2026-09-04 13:27:07 | 43.88185 | 4.86512 | 49° | 22km/h | 14079m | -5.3m/s | -65.3°C | 9.8% | 152.8hPa | 0V | 00:00:00 | 00:00:00 | 00:00:00 | |
| AUTORXJP | 2026-09-04 13:26:35 | 43.88097 | 4.86259 | 73° | 27km/h | 14247m | -5.4m/s | -64.6°C | 7.1% | 148.6hPa | 0V | 00:00:00 | 00:00:00 | 00:00:00 | |
| AUTORXJP | 2026-09-04 13:26:04 | 43.87902 | 4.85919 | 56° | 38km/h | 14418m | -5.4m/s | -64.9°C | 4.7% | 144.5hPa | 0V | 00:00:00 | 00:00:00 | 00:00:00 | |
| AUTORXJP | 2026-09-04 13:25:33 | 43.87759 | 4.85297 | 77° | 58km/h | 14598m | -5.4m/s | -64.9°C | 3.3% | 140.2hPa | 0V | 00:00:00 | 00:00:00 | 00:00:00 | |
| AUTORXJP | 2026-09-04 13:25:02 | 43.87800 | 4.84748 | 112° | 42km/h | 14762m | -5.0m/s | -64.3°C | 2.6% | 136.5hPa | 0V | 00:00:00 | 00:00:00 | 00:00:00 | |
| AUTORXJP | 2026-09-04 13:24:31 | 43.87907 | 4.84367 | 90° | 38km/h | 14928m | -5.2m/s | -63.0°C | 2.0% | 132.8hPa | 0V | 00:00:00 | 00:00:00 | 00:00:00 | |
| AUTORXJP | 2026-09-04 13:24:00 | 43.87943 | 4.83796 | 95° | 58km/h | 15094m | -5.2m/s | -63.3°C | 1.7% | 129.3hPa | 0V | 00:00:00 | 00:00:00 | 00:00:00 | |
| AUTORXJP | 2026-09-04 13:23:29 | 43.88044 | 4.83323 | 104° | 29km/h | 15261m | -5.1m/s | -64.2°C | 1.0% | 125.7hPa | 0V | 00:00:00 | 00:00:00 | 00:00:00 | |
| AUTORXJP | 2026-09-04 13:22:58 | 43.88097 | 4.82998 | 109° | 27km/h | 15434m | -5.7m/s | -63.8°C | 0.9% | 122.2hPa | 0V | 00:00:00 | 00:00:00 | 00:00:00 | |
| AUTORXJP | 2026-09-04 13:22:27 | 43.88088 | 4.82735 | 73° | 24km/h | 15618m | -6.1m/s | -63.2°C | 0.4% | 118.6hPa | 0V | 00:00:00 | 00:00:00 | 00:00:00 | |
| AUTORXJP | 2026-09-04 13:21:56 | 43.88021 | 4.82357 | 90° | 44km/h | 15806m | -6.2m/s | -63.1°C | 0.0% | 114.9hPa | 0V | 00:00:00 | 00:00:00 | 00:00:00 | |
| AUTORXJP | 2026-09-04 13:21:25 | 43.88095 | 4.82071 | 63° | 22km/h | 15997m | -6.2m/s | -62.7°C | 0.0% | 111.3hPa | 0V | 00:00:00 | 00:00:00 | 00:00:00 | |
| AUTORXJP | 2026-09-04 13:20:54 | 43.88001 | 4.81741 | 78° | 49km/h | 16192m | -6.3m/s | -63.2°C | 0.0% | 107.9hPa | 0V | 00:00:00 | 00:00:00 | 00:00:00 | |
| AUTORXJP | 2026-09-04 13:20:22 | 43.88117 | 4.81205 | 118° | 53km/h | 16383m | -6.2m/s | -62.1°C | 0.0% | 104.5hPa | 0V | 00:00:00 | 00:00:00 | 00:00:00 | |
| AUTORXJP | 2026-09-04 13:19:51 | 43.88267 | 4.80818 | 101° | 29km/h | 16576m | -6.5m/s | -62.4°C | 0.0% | 101.3hPa | 0V | 00:00:00 | 00:00:00 | 00:00:00 | |
| AUTORXJP | 2026-09-04 13:19:20 | 43.88275 | 4.80409 | 104° | 47km/h | 16773m | -6.3m/s | -62.3°C | 0.0% | 98.1hPa | 0V | 00:00:00 | 00:00:00 | 00:00:00 | |
| AUTORXJP | 2026-09-04 13:18:49 | 43.88416 | 4.79887 | 124° | 49km/h | 16980m | -6.6m/s | -60.9°C | 0.0% | 94.8hPa | 0V | 00:00:00 | 00:00:00 | 00:00:00 | |
| AUTORXJP | 2026-09-04 13:17:47 | 43.88877 | 4.79315 | 120° | 35km/h | 17404m | -6.7m/s | -59.5°C | 0.0% | 88.5hPa | 0V | 00:00:00 | 00:00:00 | 00:00:00 | |
| AUTORXJP | 2026-09-04 13:17:16 | 43.88876 | 4.78968 | 62° | 37km/h | 17613m | -6.8m/s | -60.5°C | 0.0% | 85.5hPa | 0V | 00:00:00 | 00:00:00 | 00:00:00 | |
| AUTORXJP | 2026-09-04 13:16:45 | 43.88768 | 4.78733 | 102° | 37km/h | 17831m | -6.8m/s | -60.4°C | 0.0% | 82.5hPa | 0V | 00:00:00 | 00:00:00 | 00:00:00 | |
| AUTORXJP | 2026-09-04 13:16:14 | 43.88825 | 4.78244 | 88° | 38km/h | 18050m | -6.9m/s | -60.5°C | 0.0% | 79.7hPa | 0V | 00:00:00 | 00:00:00 | 00:00:00 | |
| AUTORXJP | 2026-09-04 13:15:43 | 43.88816 | 4.77958 | 71° | 11km/h | 18279m | -7.3m/s | -60.6°C | 0.0% | 76.7hPa | 0V | 00:00:00 | 00:00:00 | 00:00:00 | |
| AUTORXJP | 2026-09-04 13:15:12 | 43.88804 | 4.77909 | 266° | 16km/h | 18514m | -7.6m/s | -60.0°C | 0.0% | 73.9hPa | 0V | 00:00:00 | 00:00:00 | 00:00:00 | |
| AUTORXJP | 2026-09-04 13:14:10 | 43.88916 | 4.77992 | 174° | 26km/h | 18999m | -8.6m/s | -59.2°C | 0.0% | 68.3hPa | 0V | 00:00:00 | 00:00:00 | 00:00:00 | |
| AUTORXJP | 2026-09-04 13:13:39 | 43.88909 | 4.78102 | 13° | 33km/h | 19248m | -7.9m/s | -58.1°C | 0.0% | 65.5hPa | 0V | 00:00:00 | 00:00:00 | 00:00:00 | |
| AUTORXJP | 2026-09-04 13:13:07 | 43.88732 | 4.77822 | 77° | 29km/h | 19510m | -8.4m/s | -57.5°C | 0.0% | 62.9hPa | 0V | 00:00:00 | 00:00:00 | 00:00:00 | |
| AUTORXJP | 2026-09-04 13:12:36 | 43.88653 | 4.77490 | 4° | 24km/h | 19774m | -8.4m/s | -57.5°C | 0.0% | 60.2hPa | 0V | 00:00:00 | 00:00:00 | 00:00:00 | |
| AUTORXJP | 2026-09-04 13:12:05 | 43.88484 | 4.77389 | 37° | 27km/h | 20042m | -8.2m/s | -57.8°C | 0.0% | 57.6hPa | 0V | 00:00:00 | 00:00:00 | 00:00:00 | |
| AUTORXJP | 2026-09-04 13:11:34 | 43.88463 | 4.77375 | 169° | 26km/h | 20319m | -7.6m/s | -56.5°C | 0.0% | 55.1hPa | 0V | 00:00:00 | 00:00:00 | 00:00:00 | |
| AUTORXJP | 2026-09-04 13:11:03 | 43.88719 | 4.77367 | 176° | 33km/h | 20601m | -8.3m/s | -55.4°C | 0.0% | 52.6hPa | 0V | 00:00:00 | 00:00:00 | 00:00:00 | |
| AUTORXJP | 2026-09-04 13:10:32 | 43.88933 | 4.77379 | 117° | 22km/h | 20896m | -9.8m/s | -56.4°C | 0.0% | 50.2hPa | 0V | 00:00:00 | 00:00:00 | 00:00:00 | |
| AUTORXJP | 2026-09-04 13:10:01 | 43.88865 | 4.77125 | 40° | 11km/h | 21201m | -9.5m/s | -56.4°C | 0.0% | 47.8hPa | 0V | 00:00:00 | 00:00:00 | 00:00:00 | |
| AUTORXJP | 2026-09-04 13:09:30 | 43.88948 | 4.77252 | 184° | 40km/h | 21511m | -9.8m/s | -55.7°C | 0.0% | 45.4hPa | 0V | 00:00:00 | 00:00:00 | 00:00:00 | |
| AUTORXJP | 2026-09-04 13:08:59 | 43.89113 | 4.77075 | 83° | 16km/h | 21833m | -9.7m/s | -56.1°C | 0.0% | 43.1hPa | 0V | 00:00:00 | 00:00:00 | 00:00:00 | |
| AUTORXJP | 2026-09-04 13:08:28 | 43.89255 | 4.76924 | 147° | 24km/h | 22154m | -10.0m/s | -56.2°C | 0.0% | 41.0hPa | 0V | 00:00:00 | 00:00:00 | 00:00:00 | |
| AUTORXJP | 2026-09-04 13:07:57 | 43.89224 | 4.76882 | 299° | 27km/h | 22476m | -10.1m/s | -55.5°C | 0.0% | 38.8hPa | 0V | 00:00:00 | 00:00:00 | 00:00:00 | |
| AUTORXJP | 2026-09-04 13:07:26 | 43.89068 | 4.77165 | 357° | 27km/h | 22809m | -11.2m/s | -54.2°C | 0.0% | 36.8hPa | 0V | 00:00:00 | 00:00:00 | 00:00:00 | |
| AUTORXJP | 2026-09-04 13:06:54 | 43.88961 | 4.77082 | 215° | 29km/h | 23157m | -11.5m/s | -54.1°C | 0.0% | 34.8hPa | 0V | 00:00:00 | 00:00:00 | 00:00:00 | |
| AUTORXJP | 2026-09-04 13:06:23 | 43.89021 | 4.77504 | 271° | 27km/h | 23524m | -11.6m/s | -53.8°C | 0.0% | 32.8hPa | 0V | 00:00:00 | 00:00:00 | 00:00:00 | |
| AUTORXJP | 2026-09-04 13:05:52 | 43.89084 | 4.77769 | 253° | 37km/h | 23898m | -11.8m/s | -52.1°C | 0.0% | 30.9hPa | 0V | 00:00:00 | 00:00:00 | 00:00:00 | |
| AUTORXJP | 2026-09-04 13:05:21 | 43.89153 | 4.78123 | 243° | 29km/h | 24298m | -11.9m/s | -52.3°C | 0.0% | 28.9hPa | 0V | 00:00:00 | 00:00:00 | 00:00:00 | |
| AUTORXJP | 2026-09-04 13:04:50 | 43.89188 | 4.78478 | 294° | 24km/h | 24690m | -12.3m/s | -50.6°C | 0.0% | 27.2hPa | 0V | 00:00:00 | 00:00:00 | 00:00:00 | |
| AUTORXJP | 2026-09-04 13:04:19 | 43.89160 | 4.78508 | 164° | 18km/h | 25105m | -14.2m/s | -48.5°C | 0.0% | 25.4hPa | 0V | 00:00:00 | 00:00:00 | 00:00:00 | |
| AUTORXJP | 2026-09-04 13:03:48 | 43.89132 | 4.78476 | 340° | 42km/h | 25538m | -13.5m/s | -47.4°C | 0.0% | 23.7hPa | 0V | 00:00:00 | 00:00:00 | 00:00:00 | |
| AUTORXJP | 2026-09-04 13:03:17 | 43.89012 | 4.78385 | 201° | 18km/h | 25993m | -15.1m/s | -47.0°C | 0.0% | 22.1hPa | 0V | 00:00:00 | 00:00:00 | 00:00:00 | |
| AUTORXJP | 2026-09-04 13:02:46 | 43.89097 | 4.78695 | 298° | 47km/h | 26455m | -14.4m/s | -48.1°C | 0.0% | 20.5hPa | 0V | 00:00:00 | 00:00:00 | 00:00:00 | |
| AUTORXJP | 2026-09-04 13:02:15 | 43.88729 | 4.78735 | 31° | 53km/h | 26934m | -15.9m/s | -47.8°C | 0.0% | 19.0hPa | 0V | 00:00:00 | 00:00:00 | 00:00:00 | |
| AUTORXJP | 2026-09-04 13:01:44 | 43.88566 | 4.78159 | 77° | 58km/h | 27434m | -16.0m/s | -47.9°C | 0.0% | 17.5hPa | 0V | 00:00:00 | 00:00:00 | 00:00:00 | |
| AUTORXJP | 2026-09-04 13:01:13 | 43.88750 | 4.77850 | 137° | 44km/h | 27953m | -16.5m/s | -45.3°C | 0.0% | 16.1hPa | 0V | 00:00:00 | 00:00:00 | 00:00:00 | |
| AUTORXJP | 2026-09-04 13:00:42 | 43.88834 | 4.77780 | 24° | 49km/h | 28520m | -18.9m/s | -44.3°C | 0.0% | 14.7hPa | 0V | 00:00:00 | 00:00:00 | 00:00:00 | |
| AUTORXJP | 2026-09-04 13:00:10 | 43.88813 | 4.77666 | 126° | 44km/h | 29128m | -19.1m/s | -44.4°C | 0.0% | 13.2hPa | 0V | 00:00:00 | 00:00:00 | 00:00:00 | |
| AUTORXJP | 2026-09-04 12:59:39 | 43.88808 | 4.77639 | 144° | 46km/h | 29795m | -20.4m/s | -42.6°C | 0.0% | 11.9hPa | 0V | 00:00:00 | 00:00:00 | 00:00:00 | |
| AUTORXJP | 2026-09-04 12:59:08 | 43.88763 | 4.77626 | 12° | 29km/h | 30449m | -23.5m/s | -42.4°C | 0.0% | 10.7hPa | 0V | 00:00:00 | 00:00:00 | 00:00:00 | |
| AUTORXJP | 2026-09-04 12:58:37 | 43.88842 | 4.77665 | 212° | 13km/h | 30791m | 6.0m/s | -42.1°C | 0.0% | 10.1hPa | 0V | 00:00:00 | 00:00:00 | 00:00:00 | |
| AUTORXJP | 2026-09-04 12:58:06 | 43.88900 | 4.77651 | 95° | 7km/h | 30604m | 5.1m/s | -42.1°C | 0.0% | 10.4hPa | 0V | 00:00:00 | 00:00:00 | 00:00:00 | |
| AUTORXJP | 2026-09-04 12:57:35 | 43.88832 | 4.77577 | 322° | 15km/h | 30421m | 5.7m/s | -42.2°C | 0.0% | 10.7hPa | 0V | 00:00:00 | 00:00:00 | 00:00:00 | |
| AUTORXJP | 2026-09-04 12:57:04 | 43.88757 | 4.77563 | 21° | 11km/h | 30245m | 7.0m/s | -42.6°C | 0.0% | 11.1hPa | 0V | 00:00:00 | 00:00:00 | 00:00:00 | |
| AUTORXJP | 2026-09-04 12:56:34 | 43.88654 | 4.77594 | 323° | 33km/h | 30069m | 7.7m/s | -42.5°C | 0.0% | 11.4hPa | 0V | 00:00:00 | 00:00:00 | 00:00:00 | |
| AUTORXJP | 2026-09-04 12:56:02 | 43.88581 | 4.77693 | 254° | 2km/h | 29892m | 6.9m/s | -42.8°C | 0.0% | 11.7hPa | 0V | 00:00:00 | 00:00:00 | 00:00:00 | |
| AUTORXJP | 2026-09-04 12:55:31 | 43.88536 | 4.77694 | 323° | 11km/h | 29718m | 7.0m/s | -43.1°C | 0.0% | 12.1hPa | 0V | 00:00:00 | 00:00:00 | 00:00:00 | |
| AUTORXJP | 2026-09-04 12:55:00 | 43.88385 | 4.77685 | 31° | 18km/h | 29532m | 5.0m/s | -42.9°C | 0.0% | 12.5hPa | 0V | 00:00:00 | 00:00:00 | 00:00:00 | |
| AUTORXJP | 2026-09-04 12:54:29 | 43.88232 | 4.77687 | 242° | 2km/h | 29351m | 6.4m/s | -43.7°C | 0.0% | 12.8hPa | 0V | 00:00:00 | 00:00:00 | 00:00:00 | |
| AUTORXJP | 2026-09-04 12:53:58 | 43.88229 | 4.77679 | 212° | 7km/h | 29174m | 6.9m/s | -44.6°C | 0.0% | 13.2hPa | 0V | 00:00:00 | 00:00:00 | 00:00:00 | |
| AUTORXJP | 2026-09-04 12:53:26 | 43.88211 | 4.77669 | 30° | 4km/h | 28994m | 6.4m/s | -44.8°C | 0.0% | 13.6hPa | 0V | 00:00:00 | 00:00:00 | 00:00:00 | |
| AUTORXJP | 2026-09-04 12:52:55 | 43.88165 | 4.77693 | 333° | 13km/h | 28820m | 7.0m/s | -44.8°C | 0.0% | 14.0hPa | 0V | 00:00:00 | 00:00:00 | 00:00:00 | |
| AUTORXJP | 2026-09-04 12:52:24 | 43.88132 | 4.77674 | 323° | 15km/h | 28638m | 4.2m/s | -44.7°C | 0.0% | 14.4hPa | 0V | 00:00:00 | 00:00:00 | 00:00:00 | |
| AUTORXJP | 2026-09-04 12:51:53 | 43.88110 | 4.77727 | 47° | 13km/h | 28461m | 7.8m/s | -44.2°C | 0.0% | 14.9hPa | 0V | 00:00:00 | 00:00:00 | 00:00:00 | |
| AUTORXJP | 2026-09-04 12:51:22 | 43.88141 | 4.77710 | 210° | 9km/h | 28284m | 4.0m/s | -44.6°C | 0.0% | 15.3hPa | 0V | 00:00:00 | 00:00:00 | 00:00:00 | |
| AUTORXJP | 2026-09-04 12:50:51 | 43.88170 | 4.77724 | 182° | 11km/h | 28110m | 6.5m/s | -45.5°C | 0.0% | 15.7hPa | 0V | 00:00:00 | 00:00:00 | 00:00:00 | |
| AUTORXJP | 2026-09-04 12:50:20 | 43.88197 | 4.77658 | 59° | 9km/h | 27936m | 6.6m/s | -46.5°C | 0.0% | 16.2hPa | 0V | 00:00:00 | 00:00:00 | 00:00:00 | |
| AUTORXJP | 2026-09-04 12:49:49 | 43.88204 | 4.77617 | 350° | 2km/h | 27761m | 6.0m/s | -46.9°C | 0.0% | 16.6hPa | 0V | 00:00:00 | 00:00:00 | 00:00:00 | |
| AUTORXJP | 2026-09-04 12:49:19 | 43.88161 | 4.77459 | 78° | 16km/h | 27585m | 6.1m/s | -47.1°C | 0.0% | 17.1hPa | 0V | 00:00:00 | 00:00:00 | 00:00:00 | |
| AUTORXJP | 2026-09-04 12:48:47 | 43.88064 | 4.77252 | 56° | 29km/h | 27414m | 6.8m/s | -47.6°C | 0.0% | 17.6hPa | 0V | 00:00:00 | 00:00:00 | 00:00:00 | |
| AUTORXJP | 2026-09-04 12:48:16 | 43.87951 | 4.77050 | 25° | 29km/h | 27241m | 4.5m/s | -47.1°C | 0.0% | 18.1hPa | 0V | 00:00:00 | 00:00:00 | 00:00:00 | |
| AUTORXJP | 2026-09-04 12:47:45 | 43.87777 | 4.76844 | 27° | 37km/h | 27066m | 6.3m/s | -46.9°C | 0.0% | 18.7hPa | 0V | 00:00:00 | 00:00:00 | 00:00:00 | |
| AUTORXJP | 2026-09-04 12:47:14 | 43.87641 | 4.76692 | 14° | 15km/h | 26889m | 5.5m/s | -47.3°C | 0.0% | 19.2hPa | 0V | 00:00:00 | 00:00:00 | 00:00:00 | |
| AUTORXJP | 2026-09-04 12:46:42 | 43.87539 | 4.76637 | 19° | 31km/h | 26711m | 4.7m/s | -47.8°C | 0.0% | 19.8hPa | 0V | 00:00:00 | 00:00:00 | 00:00:00 | |
| AUTORXJP | 2026-09-04 12:46:11 | 43.87401 | 4.76693 | 335° | 13km/h | 26532m | 5.4m/s | -47.7°C | 0.0% | 20.4hPa | 0V | 00:00:00 | 00:00:00 | 00:00:00 | |
| AUTORXJP | 2026-09-04 12:45:40 | 43.87339 | 4.76839 | 273° | 5km/h | 26339m | 6.6m/s | -46.7°C | 0.0% | 21.0hPa | 0V | 00:00:00 | 00:00:00 | 00:00:00 | |
| AUTORXJP | 2026-09-04 12:45:09 | 43.87337 | 4.76944 | 228° | 13km/h | 26148m | 6.1m/s | -46.8°C | 0.0% | 21.6hPa | 0V | 00:00:00 | 00:00:00 | 00:00:00 | |
| AUTORXJP | 2026-09-04 12:44:38 | 43.87318 | 4.77045 | 300° | 0km/h | 25958m | 4.8m/s | -46.2°C | 0.0% | 22.3hPa | 0V | 00:00:00 | 00:00:00 | 00:00:00 | |
| AUTORXJP | 2026-09-04 12:44:07 | 43.87295 | 4.77185 | 237° | 5km/h | 25774m | 5.6m/s | -46.1°C | 0.0% | 23.0hPa | 0V | 00:00:00 | 00:00:00 | 00:00:00 | |
| AUTORXJP | 2026-09-04 12:43:36 | 43.87294 | 4.77296 | 316° | 2km/h | 25599m | 6.2m/s | -46.8°C | 0.0% | 23.6hPa | 0V | 00:00:00 | 00:00:00 | 00:00:00 | |
| AUTORXJP | 2026-09-04 12:43:05 | 43.87292 | 4.77496 | 259° | 11km/h | 25432m | 7.1m/s | -47.2°C | 0.0% | 24.3hPa | 0V | 00:00:00 | 00:00:00 | 00:00:00 | |
| AUTORXJP | 2026-09-04 12:42:34 | 43.87295 | 4.77739 | 300° | 20km/h | 25266m | 6.7m/s | -48.0°C | 0.0% | 24.9hPa | 0V | 00:00:00 | 00:00:00 | 00:00:00 | |
| AUTORXJP | 2026-09-04 12:42:03 | 43.87338 | 4.78056 | 233° | 26km/h | 25104m | 6.3m/s | -48.7°C | 0.0% | 25.6hPa | 0V | 00:00:00 | 00:00:00 | 00:00:00 | |
| AUTORXJP | 2026-09-04 12:41:32 | 43.87514 | 4.78269 | 198° | 16km/h | 24942m | 7.3m/s | -49.1°C | 0.0% | 26.2hPa | 0V | 00:00:00 | 00:00:00 | 00:00:00 | |
| AUTORXJP | 2026-09-04 12:41:01 | 43.87663 | 4.78261 | 132° | 13km/h | 24777m | 3.6m/s | -50.7°C | 0.0% | 26.9hPa | 0V | 00:00:00 | 00:00:00 | 00:00:00 | |
| AUTORXJP | 2026-09-04 12:40:30 | 43.87689 | 4.78298 | 318° | 15km/h | 24611m | 4.7m/s | -51.6°C | 0.0% | 27.6hPa | 0V | 00:00:00 | 00:00:00 | 00:00:00 | |
| AUTORXJP | 2026-09-04 12:39:59 | 43.87669 | 4.78420 | 308° | 9km/h | 24441m | 5.2m/s | -51.7°C | 0.0% | 28.4hPa | 0V | 00:00:00 | 00:00:00 | 00:00:00 | |
| AUTORXJP | 2026-09-04 12:39:27 | 43.87661 | 4.78473 | 107° | 15km/h | 24266m | 5.0m/s | -52.2°C | 0.0% | 29.3hPa | 0V | 00:00:00 | 00:00:00 | 00:00:00 | |
| AUTORXJP | 2026-09-04 12:38:56 | 43.87608 | 4.78505 | 323° | 7km/h | 24109m | 6.3m/s | -52.1°C | 0.0% | 30.0hPa | 0V | 00:00:00 | 00:00:00 | 00:00:00 | |
| AUTORXJP | 2026-09-04 12:38:25 | 43.87600 | 4.78545 | 115° | 15km/h | 23946m | 6.3m/s | -52.9°C | 0.0% | 30.8hPa | 0V | 00:00:00 | 00:00:00 | 00:00:00 | |
| AUTORXJP | 2026-09-04 12:37:54 | 43.87584 | 4.78435 | 42° | 15km/h | 23783m | 4.6m/s | -53.8°C | 0.0% | 31.6hPa | 0V | 00:00:00 | 00:00:00 | 00:00:00 | |
| AUTORXJP | 2026-09-04 12:37:23 | 43.87481 | 4.78386 | 346° | 5km/h | 23623m | 6.5m/s | -54.3°C | 0.0% | 32.5hPa | 0V | 00:00:00 | 00:00:00 | 00:00:00 | |
| AUTORXJP | 2026-09-04 12:36:52 | 43.87385 | 4.78471 | 299° | 22km/h | 23461m | 4.2m/s | -54.0°C | 0.0% | 33.3hPa | 0V | 00:00:00 | 00:00:00 | 00:00:00 | |
| AUTORXJP | 2026-09-04 12:36:21 | 43.87333 | 4.78690 | 274° | 18km/h | 23289m | 6.0m/s | -54.3°C | 0.0% | 34.3hPa | 0V | 00:00:00 | 00:00:00 | 00:00:00 | |
| AUTORXJP | 2026-09-04 12:35:50 | 43.87318 | 4.78845 | 325° | 5km/h | 23115m | 6.2m/s | -54.1°C | 0.0% | 35.2hPa | 0V | 00:00:00 | 00:00:00 | 00:00:00 | |
| AUTORXJP | 2026-09-04 12:35:19 | 43.87267 | 4.78881 | 15° | 2km/h | 22941m | 4.8m/s | -54.5°C | 0.0% | 36.2hPa | 0V | 00:00:00 | 00:00:00 | 00:00:00 | |
| AUTORXJP | 2026-09-04 12:34:48 | 43.87236 | 4.78940 | 261° | 20km/h | 22767m | 6.1m/s | -55.2°C | 0.0% | 37.3hPa | 0V | 00:00:00 | 00:00:00 | 00:00:00 | |
| AUTORXJP | 2026-09-04 12:34:16 | 43.87234 | 4.79097 | 264° | 7km/h | 22588m | 5.9m/s | -55.1°C | 0.0% | 38.4hPa | 0V | 00:00:00 | 00:00:00 | 00:00:00 | |
| AUTORXJP | 2026-09-04 12:33:46 | 43.87254 | 4.79216 | 237° | 11km/h | 22416m | 5.3m/s | -54.8°C | 0.0% | 39.4hPa | 0V | 00:00:00 | 00:00:00 | 00:00:00 | |
| AUTORXJP | 2026-09-04 12:33:14 | 43.87362 | 4.79269 | 200° | 7km/h | 22242m | 5.9m/s | -55.1°C | 0.0% | 40.6hPa | 0V | 00:00:00 | 00:00:00 | 00:00:00 | |
| AUTORXJP | 2026-09-04 12:32:43 | 43.87399 | 4.79336 | 204° | 18km/h | 22076m | 4.6m/s | -55.0°C | 0.0% | 41.7hPa | 0V | 00:00:00 | 00:00:00 | 00:00:00 | |
| AUTORXJP | 2026-09-04 12:32:12 | 43.87506 | 4.79401 | 219° | 5km/h | 21918m | 5.0m/s | -54.8°C | 0.0% | 42.8hPa | 0V | 00:00:00 | 00:00:00 | 00:00:00 | |
| AUTORXJP | 2026-09-04 12:31:41 | 43.87532 | 4.79424 | 315° | 5km/h | 21757m | 6.8m/s | -55.2°C | 0.0% | 43.9hPa | 0V | 00:00:00 | 00:00:00 | 00:00:00 | |
| AUTORXJP | 2026-09-04 12:31:10 | 43.87616 | 4.79463 | 187° | 26km/h | 21581m | 6.2m/s | -55.3°C | 0.0% | 45.1hPa | 0V | 00:00:00 | 00:00:00 | 00:00:00 | |
| AUTORXJP | 2026-09-04 12:30:39 | 43.87753 | 4.79385 | 158° | 11km/h | 21421m | 4.0m/s | -55.2°C | 0.0% | 46.3hPa | 0V | 00:00:00 | 00:00:00 | 00:00:00 | |
| AUTORXJP | 2026-09-04 12:30:08 | 43.87842 | 4.79321 | 183° | 15km/h | 21258m | 3.5m/s | -55.5°C | 0.0% | 47.5hPa | 0V | 00:00:00 | 00:00:00 | 00:00:00 | |
| AUTORXJP | 2026-09-04 12:29:37 | 43.87928 | 4.79232 | 95° | 4km/h | 21096m | 6.5m/s | -56.8°C | 0.0% | 48.8hPa | 0V | 00:00:00 | 00:00:00 | 00:00:00 | |
| AUTORXJP | 2026-09-04 12:29:06 | 43.87909 | 4.79187 | 300° | 4km/h | 20928m | 5.5m/s | -56.0°C | 0.0% | 50.1hPa | 0V | 00:00:00 | 00:00:00 | 00:00:00 | |
| AUTORXJP | 2026-09-04 12:28:35 | 43.87894 | 4.79191 | 152° | 2km/h | 20770m | 4.9m/s | -55.2°C | 0.0% | 51.5hPa | 0V | 00:00:00 | 00:00:00 | 00:00:00 | |
| AUTORXJP | 2026-09-04 12:28:04 | 43.87921 | 4.79189 | 187° | 11km/h | 20612m | 5.2m/s | -54.8°C | 0.0% | 52.7hPa | 0V | 00:00:00 | 00:00:00 | 00:00:00 | |
| AUTORXJP | 2026-09-04 12:27:33 | 43.87999 | 4.79157 | 123° | 16km/h | 20458m | 5.5m/s | -55.6°C | 0.0% | 54.1hPa | 0V | 00:00:00 | 00:00:00 | 00:00:00 | |
| AUTORXJP | 2026-09-04 12:27:02 | 43.88061 | 4.79018 | 99° | 16km/h | 20301m | 4.8m/s | -56.1°C | 0.0% | 55.5hPa | 0V | 00:00:00 | 00:00:00 | 00:00:00 | |
| AUTORXJP | 2026-09-04 12:26:30 | 43.88065 | 4.78835 | 94° | 15km/h | 20144m | 5.2m/s | -56.7°C | 0.0% | 56.8hPa | 0V | 00:00:00 | 00:00:00 | 00:00:00 | |
| AUTORXJP | 2026-09-04 12:25:59 | 43.88032 | 4.78763 | 151° | 4km/h | 19980m | 4.9m/s | -57.1°C | 0.0% | 58.4hPa | 0V | 00:00:00 | 00:00:00 | 00:00:00 | |
| AUTORXJP | 2026-09-04 12:25:28 | 43.88032 | 4.78747 | 126° | 4km/h | 19811m | 5.8m/s | -56.8°C | 0.0% | 60.0hPa | 0V | 00:00:00 | 00:00:00 | 00:00:00 | |
| AUTORXJP | 2026-09-04 12:24:57 | 43.88026 | 4.78709 | 0° | 0km/h | 19651m | 5.8m/s | -56.6°C | 0.0% | 61.6hPa | 0V | 00:00:00 | 00:00:00 | 00:00:00 | |
| AUTORXJP | 2026-09-04 12:24:26 | 43.87990 | 4.78582 | 337° | 9km/h | 19490m | 5.0m/s | -57.0°C | 0.0% | 63.2hPa | 0V | 00:00:00 | 00:00:00 | 00:00:00 | |
| AUTORXJP | 2026-09-04 12:23:55 | 43.87986 | 4.78491 | 85° | 15km/h | 19336m | 4.9m/s | -57.7°C | 0.0% | 64.7hPa | 0V | 00:00:00 | 00:00:00 | 00:00:00 | |
| AUTORXJP | 2026-09-04 12:23:24 | 43.87947 | 4.78448 | 316° | 11km/h | 19183m | 4.0m/s | -57.9°C | 0.0% | 66.4hPa | 0V | 00:00:00 | 00:00:00 | 00:00:00 | |
| AUTORXJP | 2026-09-04 12:22:53 | 43.88009 | 4.78522 | 163° | 18km/h | 19041m | 4.4m/s | -58.2°C | 0.0% | 67.9hPa | 0V | 00:00:00 | 00:00:00 | 00:00:00 | |
| AUTORXJP | 2026-09-04 12:22:22 | 43.88126 | 4.78439 | 103° | 7km/h | 18896m | 3.7m/s | -59.0°C | 0.0% | 69.5hPa | 0V | 00:00:00 | 00:00:00 | 00:00:00 | |
| AUTORXJP | 2026-09-04 12:21:51 | 43.88106 | 4.78310 | 8° | 11km/h | 18747m | 4.2m/s | -58.8°C | 0.0% | 71.2hPa | 0V | 00:00:00 | 00:00:00 | 00:00:00 | |
| AUTORXJP | 2026-09-04 12:21:20 | 43.88028 | 4.78254 | 120° | 0km/h | 18597m | 5.7m/s | -59.3°C | 0.0% | 73.0hPa | 0V | 00:00:00 | 00:00:00 | 00:00:00 | |
| AUTORXJP | 2026-09-04 12:20:49 | 43.88106 | 4.78293 | 154° | 9km/h | 18452m | 5.7m/s | -59.5°C | 0.0% | 74.7hPa | 0V | 00:00:00 | 00:00:00 | 00:00:00 | |
| AUTORXJP | 2026-09-04 12:19:46 | 43.88315 | 4.78037 | 101° | 22km/h | 18149m | 3.9m/s | -59.9°C | 0.0% | 78.5hPa | 0V | 00:00:00 | 00:00:00 | 00:00:00 | |
| AUTORXJP | 2026-09-04 12:19:15 | 43.88362 | 4.77743 | 111° | 29km/h | 18005m | 5.3m/s | -60.0°C | 0.0% | 80.4hPa | 0V | 00:00:00 | 00:00:00 | 00:00:00 | |
| AUTORXJP | 2026-09-04 12:18:44 | 43.88328 | 4.77439 | 66° | 26km/h | 17853m | 5.5m/s | -59.9°C | 0.0% | 82.3hPa | 0V | 00:00:00 | 00:00:00 | 00:00:00 | |
| AUTORXJP | 2026-09-04 12:18:13 | 43.88219 | 4.77267 | 41° | 20km/h | 17706m | 5.8m/s | -59.7°C | 0.2% | 84.3hPa | 0V | 00:00:00 | 00:00:00 | 00:00:00 | |
| AUTORXJP | 2026-09-04 12:17:42 | 43.88107 | 4.77203 | 66° | 9km/h | 17559m | 5.4m/s | -60.1°C | 0.7% | 86.4hPa | 0V | 00:00:00 | 00:00:00 | 00:00:00 | |
| AUTORXJP | 2026-09-04 12:17:11 | 43.88143 | 4.77152 | 134° | 15km/h | 17416m | 4.2m/s | -60.0°C | 1.0% | 88.4hPa | 0V | 00:00:00 | 00:00:00 | 00:00:00 | |
| AUTORXJP | 2026-09-04 12:16:40 | 43.88288 | 4.77034 | 151° | 22km/h | 17268m | 5.6m/s | -60.3°C | 1.3% | 90.6hPa | 0V | 00:00:00 | 00:00:00 | 00:00:00 | |
| AUTORXJP | 2026-09-04 12:16:09 | 43.88481 | 4.76847 | 137° | 22km/h | 17127m | 3.7m/s | -62.0°C | 1.5% | 92.6hPa | 0V | 00:00:00 | 00:00:00 | 00:00:00 | |
| AUTORXJP | 2026-09-04 12:15:38 | 43.88682 | 4.76539 | 129° | 40km/h | 16989m | 5.4m/s | -62.3°C | 1.8% | 94.8hPa | 0V | 00:00:00 | 00:00:00 | 00:00:00 | |
| AUTORXJP | 2026-09-04 12:15:07 | 43.88878 | 4.76129 | 119° | 53km/h | 16849m | 3.6m/s | -62.9°C | 1.9% | 97.0hPa | 0V | 00:00:00 | 00:00:00 | 00:00:00 | |
| AUTORXJP | 2026-09-04 12:14:05 | 43.88937 | 4.75097 | 88° | 38km/h | 16562m | 3.9m/s | -62.9°C | 2.6% | 101.6hPa | 0V | 00:00:00 | 00:00:00 | 00:00:00 | |
| AUTORXJP | 2026-09-04 12:13:33 | 43.88934 | 4.74717 | 94° | 31km/h | 16421m | 5.2m/s | -62.9°C | 3.0% | 104.0hPa | 0V | 00:00:00 | 00:00:00 | 00:00:00 | |
| AUTORXJP | 2026-09-04 12:13:02 | 43.88987 | 4.74327 | 99° | 47km/h | 16275m | 4.8m/s | -62.4°C | 3.3% | 106.5hPa | 0V | 00:00:00 | 00:00:00 | 00:00:00 | |
| AUTORXJP | 2026-09-04 12:12:31 | 43.89031 | 4.73880 | 90° | 35km/h | 16133m | 4.6m/s | -63.3°C | 3.6% | 109.1hPa | 0V | 00:00:00 | 00:00:00 | 00:00:00 | |
| AUTORXJP | 2026-09-04 12:12:00 | 43.89038 | 4.73522 | 106° | 27km/h | 15984m | 4.1m/s | -63.4°C | 3.7% | 111.8hPa | 0V | 00:00:00 | 00:00:00 | 00:00:00 | |
| AUTORXJP | 2026-09-04 12:11:29 | 43.89130 | 4.73249 | 117° | 31km/h | 15838m | 4.3m/s | -64.1°C | 4.1% | 114.5hPa | 0V | 00:00:00 | 00:00:00 | 00:00:00 | |
| AUTORXJP | 2026-09-04 12:10:58 | 43.89247 | 4.72926 | 122° | 44km/h | 15690m | 4.9m/s | -63.8°C | 4.7% | 117.3hPa | 0V | 00:00:00 | 00:00:00 | 00:00:00 | |
| AUTORXJP | 2026-09-04 12:10:27 | 43.89360 | 4.72507 | 100° | 42km/h | 15548m | 4.8m/s | -62.9°C | 5.5% | 120.1hPa | 0V | 00:00:00 | 00:00:00 | 00:00:00 | |
| AUTORXJP | 2026-09-04 12:09:56 | 43.89437 | 4.72044 | 98° | 46km/h | 15406m | 4.5m/s | -62.5°C | 6.5% | 122.9hPa | 0V | 00:00:00 | 00:00:00 | 00:00:00 | |
| AUTORXJP | 2026-09-04 12:09:25 | 43.89505 | 4.71506 | 97° | 47km/h | 15261m | 5.3m/s | -62.2°C | 7.6% | 125.8hPa | 0V | 00:00:00 | 00:00:00 | 00:00:00 | |
| AUTORXJP | 2026-09-04 12:08:54 | 43.89506 | 4.71073 | 76° | 26km/h | 15114m | 3.3m/s | -62.2°C | 9.3% | 128.9hPa | 0V | 00:00:00 | 00:00:00 | 00:00:00 | |
| AUTORXJP | 2026-09-04 12:08:23 | 43.89489 | 4.70834 | 95° | 27km/h | 14977m | 3.9m/s | -63.3°C | 10.7% | 131.9hPa | 0V | 00:00:00 | 00:00:00 | 00:00:00 | |
| AUTORXJP | 2026-09-04 12:07:52 | 43.89506 | 4.70550 | 80° | 22km/h | 14846m | 4.9m/s | -64.6°C | 12.8% | 134.7hPa | 0V | 00:00:00 | 00:00:00 | 00:00:00 | |
| AUTORXJP | 2026-09-04 12:07:21 | 43.89511 | 4.70266 | 88° | 37km/h | 14716m | 5.0m/s | -65.3°C | 14.8% | 137.7hPa | 0V | 00:00:00 | 00:00:00 | 00:00:00 | |
| AUTORXJP | 2026-09-04 12:06:50 | 43.89470 | 4.69770 | 84° | 49km/h | 14582m | 3.4m/s | -65.1°C | 16.3% | 140.8hPa | 0V | 00:00:00 | 00:00:00 | 00:00:00 | |
| AUTORXJP | 2026-09-04 12:06:19 | 43.89334 | 4.69319 | 52° | 40km/h | 14439m | 3.5m/s | -65.5°C | 18.1% | 144.2hPa | 0V | 00:00:00 | 00:00:00 | 00:00:00 | |
| AUTORXJP | 2026-09-04 12:05:47 | 43.89194 | 4.69000 | 65° | 33km/h | 14308m | 3.9m/s | -65.6°C | 19.5% | 147.3hPa | 0V | 00:00:00 | 00:00:00 | 00:00:00 | |
| AUTORXJP | 2026-09-04 12:05:16 | 43.89088 | 4.68676 | 66° | 29km/h | 14184m | 3.8m/s | -65.4°C | 20.7% | 150.4hPa | 0V | 00:00:00 | 00:00:00 | 00:00:00 | |
| AUTORXJP | 2026-09-04 12:04:45 | 43.88981 | 4.68328 | 57° | 33km/h | 14057m | 5.2m/s | -65.5°C | 21.6% | 153.6hPa | 0V | 00:00:00 | 00:00:00 | 00:00:00 | |
| AUTORXJP | 2026-09-04 12:04:14 | 43.88836 | 4.68013 | 57° | 33km/h | 13926m | 3.0m/s | -65.4°C | 22.8% | 156.9hPa | 0V | 00:00:00 | 00:00:00 | 00:00:00 | |
| AUTORXJP | 2026-09-04 12:03:43 | 43.88752 | 4.67680 | 77° | 42km/h | 13793m | 3.2m/s | -65.5°C | 23.6% | 160.4hPa | 0V | 00:00:00 | 00:00:00 | 00:00:00 | |
| AUTORXJP | 2026-09-04 12:03:12 | 43.88670 | 4.67240 | 71° | 37km/h | 13661m | 4.8m/s | -65.3°C | 23.5% | 164.0hPa | 0V | 00:00:00 | 00:00:00 | 00:00:00 | |
| AUTORXJP | 2026-09-04 12:02:41 | 43.88582 | 4.66873 | 73° | 33km/h | 13536m | 4.6m/s | -64.4°C | 23.1% | 167.5hPa | 0V | 00:00:00 | 00:00:00 | 00:00:00 | |
| AUTORXJP | 2026-09-04 12:02:10 | 43.88484 | 4.66554 | 55° | 27km/h | 13405m | 5.1m/s | -63.4°C | 23.1% | 171.1hPa | 0V | 00:00:00 | 00:00:00 | 00:00:00 | |
| AUTORXJP | 2026-09-04 12:01:39 | 43.88369 | 4.66294 | 52° | 26km/h | 13275m | 4.4m/s | -62.4°C | 23.5% | 174.8hPa | 0V | 00:00:00 | 00:00:00 | 00:00:00 |